createdAt,value
2022-12-26T00:04:58.313Z,100.00
2022-12-26T00:10:00.003Z,100.00
2022-12-26T00:15:01.922Z,100.00
2022-12-26T00:20:03.993Z,100.00
2022-12-26T00:25:06.188Z,100.00
2022-12-26T00:30:08.991Z,100.00
2022-12-26T00:35:10.711Z,100.00
2022-12-26T00:40:12.668Z,100.00
2022-12-26T00:45:14.301Z,100.00
2022-12-26T00:50:16.260Z,100.00
2022-12-26T00:55:18.088Z,100.00
2022-12-26T01:00:46.827Z,100.00
2022-12-26T01:05:51.001Z,100.00
2022-12-26T01:10:53.222Z,100.00
2022-12-26T01:15:54.999Z,100.00
2022-12-26T01:21:02.172Z,100.00
2022-12-26T01:26:16.351Z,100.00
2022-12-26T01:31:22.920Z,100.00
2022-12-26T01:36:24.604Z,100.00
2022-12-26T01:41:26.873Z,100.00
2022-12-26T01:46:37.972Z,100.00
2022-12-26T01:51:44.724Z,100.00
2022-12-26T01:56:47.379Z,100.00
2022-12-26T02:01:53.002Z,100.00
2022-12-26T02:06:58.171Z,100.00
2022-12-26T02:12:34.892Z,100.00
2022-12-26T02:17:41.147Z,100.00
2022-12-26T02:23:07.837Z,100.00
2022-12-26T02:28:18.392Z,100.00
2022-12-26T02:33:37.064Z,100.00
2022-12-26T02:39:45.105Z,100.00
2022-12-26T02:44:54.959Z,100.00
2022-12-26T02:50:43.450Z,100.00
2022-12-26T02:56:08.442Z,100.00
2022-12-26T03:01:51.482Z,100.00
2022-12-26T03:07:18.346Z,100.00
2022-12-26T03:12:38.678Z,100.00
2022-12-26T03:17:40.292Z,100.00
2022-12-26T03:23:01.673Z,100.00
2022-12-26T03:28:03.478Z,100.00
2022-12-26T03:33:26.436Z,100.00
2022-12-26T03:38:51.256Z,100.00
2022-12-26T03:44:36.638Z,100.00
2022-12-26T03:50:05.816Z,100.00
2022-12-26T03:55:48.487Z,100.00
2022-12-26T04:01:13.025Z,100.00
2022-12-26T04:06:39.043Z,100.00
2022-12-26T04:12:02.970Z,100.00
2022-12-26T04:17:46.385Z,100.00
2022-12-26T04:23:30.120Z,100.00
2022-12-26T04:28:50.247Z,100.00
2022-12-26T04:34:16.598Z,100.00
2022-12-26T04:39:42.129Z,100.00
2022-12-26T04:44:45.918Z,100.00
2022-12-26T04:50:05.956Z,100.00
2022-12-26T04:55:07.976Z,100.00
2022-12-26T05:00:10.228Z,100.00
2022-12-26T05:05:30.734Z,100.00
2022-12-26T05:10:32.852Z,100.00
2022-12-26T05:15:54.499Z,100.00
2022-12-26T05:21:15.040Z,100.00
2022-12-26T05:26:41.541Z,100.00
2022-12-26T05:31:43.560Z,100.00
2022-12-26T05:36:51.964Z,100.00
2022-12-26T05:41:53.855Z,100.00
2022-12-26T05:46:55.744Z,100.00
2022-12-26T05:51:57.354Z,100.00
2022-12-26T05:57:00.188Z,100.00
2022-12-26T06:02:02.035Z,100.00
2022-12-26T06:07:04.018Z,100.00
2022-12-26T06:12:05.822Z,100.00
2022-12-26T06:17:07.459Z,100.00
2022-12-26T06:22:09.077Z,100.00
2022-12-26T06:27:10.673Z,100.00
2022-12-26T06:32:12.541Z,100.00
2022-12-26T06:37:14.297Z,100.00
2022-12-26T06:42:15.934Z,100.00
2022-12-26T06:47:17.663Z,100.00
2022-12-26T06:52:19.381Z,100.00
2022-12-26T06:57:21.074Z,100.00
2022-12-26T07:02:22.911Z,100.00
2022-12-26T07:07:24.618Z,100.00
2022-12-26T07:12:26.215Z,100.00
2022-12-26T07:17:27.789Z,100.00
2022-12-26T07:22:29.443Z,100.00
2022-12-26T07:27:31.189Z,100.00
2022-12-26T07:32:32.929Z,100.00
2022-12-26T07:37:34.626Z,100.00
2022-12-26T07:42:36.631Z,100.00
2022-12-26T07:47:38.283Z,100.00
2022-12-26T07:52:39.865Z,100.00
2022-12-26T07:57:49.581Z,100.00
2022-12-26T08:02:53.323Z,100.00
2022-12-26T08:07:55.042Z,100.00
2022-12-26T08:12:57.940Z,100.00
2022-12-26T08:17:59.666Z,100.00
2022-12-26T08:23:02.491Z,100.00
2022-12-26T08:28:04.412Z,100.00
2022-12-26T08:33:06.067Z,100.00
2022-12-26T08:38:07.837Z,100.00
2022-12-26T08:43:30.214Z,100.00
2022-12-26T08:48:31.563Z,100.00
2022-12-26T08:53:35.823Z,99.19
2022-12-26T08:58:37.619Z,97.65
2022-12-26T09:03:39.859Z,95.33
2022-12-26T09:08:42.225Z,93.58
2022-12-26T09:13:45.246Z,92.56
2022-12-26T09:18:48.222Z,92.27
2022-12-26T09:23:50.319Z,93.25
2022-12-26T09:28:52.353Z,92.35
2022-12-26T09:33:54.619Z,92.18
2022-12-26T09:38:58.501Z,92.03
2022-12-26T09:44:07.600Z,91.86
2022-12-26T09:49:15.204Z,92.23
2022-12-26T09:54:40.347Z,93.54
2022-12-26T09:59:54.576Z,92.79
2022-12-26T10:04:56.405Z,92.03
2022-12-26T10:10:09.627Z,91.01
2022-12-26T10:15:26.233Z,89.28
2022-12-26T10:20:33.477Z,90.04
2022-12-26T10:25:53.507Z,88.07
2022-12-26T10:30:58.628Z,87.06
2022-12-26T10:36:01.373Z,87.01
2022-12-26T10:41:26.385Z,87.59
2022-12-26T10:47:16.399Z,87.66
2022-12-26T10:52:23.008Z,87.86
2022-12-26T10:57:28.669Z,87.51
2022-12-26T11:02:32.273Z,86.38
2022-12-26T11:07:37.981Z,86.76
2022-12-26T11:12:51.263Z,85.18
2022-12-26T11:17:53.976Z,83.09
2022-12-26T11:23:14.139Z,81.62
2022-12-26T11:28:24.541Z,80.89
2022-12-26T11:33:30.774Z,81.68
2022-12-26T11:38:44.923Z,78.63
2022-12-26T11:43:48.320Z,77.89
2022-12-26T11:48:51.290Z,76.63
2022-12-26T11:54:13.057Z,74.79
2022-12-26T11:59:21.676Z,70.84
2022-12-26T12:04:23.302Z,70.84
2022-12-26T12:10:09.515Z,71.97
2022-12-26T12:15:22.657Z,72.27
2022-12-26T12:20:50.263Z,71.68
2022-12-26T12:26:09.334Z,70.71
2022-12-26T12:31:49.092Z,69.97
2022-12-26T12:37:04.666Z,68.14
2022-12-26T12:42:27.961Z,67.17
2022-12-26T12:47:35.195Z,68.08
2022-12-26T12:52:55.067Z,68.30
2022-12-26T12:58:07.736Z,67.34
2022-12-26T13:03:35.629Z,67.38
2022-12-26T13:08:53.741Z,65.93
2022-12-26T13:14:10.571Z,66.74
2022-12-26T13:19:21.654Z,66.95
2022-12-26T13:24:36.592Z,66.54
2022-12-26T13:29:46.917Z,67.43
2022-12-26T13:34:50.092Z,67.91
2022-12-26T13:39:52.648Z,66.37
2022-12-26T13:44:54.782Z,66.49
2022-12-26T13:49:56.418Z,65.41
2022-12-26T13:55:07.368Z,65.97
2022-12-26T14:00:48.250Z,69.11
2022-12-26T14:06:17.885Z,70.85
2022-12-26T14:11:52.676Z,72.00
2022-12-26T14:16:57.062Z,70.91
2022-12-26T14:22:17.185Z,71.03
2022-12-26T14:27:37.778Z,71.81
2022-12-26T14:32:45.223Z,70.17
2022-12-26T14:38:10.464Z,71.05
2022-12-26T14:43:38.054Z,70.21
2022-12-26T14:48:46.107Z,69.00
2022-12-26T14:54:22.157Z,69.20
2022-12-26T14:59:30.761Z,68.95
2022-12-26T15:04:43.784Z,69.46
2022-12-26T15:10:23.975Z,70.57
2022-12-26T15:15:32.751Z,71.55
2022-12-26T15:20:40.528Z,71.27
2022-12-26T15:26:00.374Z,72.00
2022-12-26T15:31:23.005Z,71.99
2022-12-26T15:36:37.110Z,72.13
2022-12-26T15:41:48.591Z,71.67
2022-12-26T15:47:22.174Z,72.06
2022-12-26T15:52:36.088Z,71.48
2022-12-26T15:57:58.919Z,70.36
2022-12-26T16:03:00.609Z,70.25
2022-12-26T16:08:24.173Z,70.59
2022-12-26T16:13:26.028Z,70.08
2022-12-26T16:18:33.091Z,69.07
2022-12-26T16:23:40.094Z,69.11
2022-12-26T16:28:43.410Z,68.45
2022-12-26T16:33:45.284Z,67.30
2022-12-26T16:38:47.744Z,65.59
2022-12-26T16:43:51.444Z,64.46
2022-12-26T16:48:57.240Z,65.02
2022-12-26T16:54:15.948Z,65.37
2022-12-26T16:59:24.053Z,65.59
2022-12-26T17:04:28.648Z,64.29
2022-12-26T17:09:39.337Z,64.83
2022-12-26T17:14:43.335Z,63.98
2022-12-26T17:19:47.800Z,62.60
2022-12-26T17:25:26.624Z,61.81
2022-12-26T17:30:31.530Z,61.49
2022-12-26T17:36:21.365Z,61.92
2022-12-26T17:41:02.029Z,61.31
2022-12-26T17:46:06.086Z,61.94
2022-12-26T17:51:12.830Z,61.53
2022-12-26T17:56:17.594Z,61.61
2022-12-26T18:01:23.903Z,60.47
2022-12-26T18:06:26.040Z,61.66
2022-12-26T18:11:27.644Z,62.99
2022-12-26T18:16:30.049Z,62.86
2022-12-26T18:21:31.848Z,63.03
2022-12-26T18:26:33.530Z,62.96
2022-12-26T18:31:39.493Z,63.25
2022-12-26T18:36:43.142Z,65.05
2022-12-26T18:41:48.007Z,64.92
2022-12-26T18:46:52.673Z,65.56
2022-12-26T18:51:54.457Z,65.65
2022-12-26T18:56:56.076Z,64.76
2022-12-26T19:02:00.639Z,66.54
2022-12-26T19:07:05.025Z,67.78
2022-12-26T19:12:06.806Z,67.83
2022-12-26T19:17:08.923Z,67.45
2022-12-26T19:22:12.604Z,67.59
2022-12-26T19:27:15.419Z,68.05
2022-12-26T19:32:17.805Z,68.16
2022-12-26T19:37:19.607Z,68.40
2022-12-26T19:42:21.364Z,68.77
2022-12-26T19:47:23.287Z,69.64
2022-12-26T19:52:27.279Z,71.05
2022-12-26T19:57:37.901Z,71.54
2022-12-26T20:02:40.492Z,70.25
2022-12-26T20:07:44.671Z,69.80
2022-12-26T20:12:46.348Z,69.10
2022-12-26T20:17:49.135Z,70.14
2022-12-26T20:22:53.233Z,70.41
2022-12-26T20:27:55.160Z,70.78
2022-12-26T20:32:57.326Z,71.18
2022-12-26T20:37:59.161Z,72.36
2022-12-26T20:43:00.832Z,72.76
2022-12-26T20:48:02.636Z,71.97
2022-12-26T20:53:07.293Z,69.38
2022-12-26T20:58:08.926Z,70.56
2022-12-26T21:03:15.043Z,71.29
2022-12-26T21:08:20.221Z,72.41
2022-12-26T21:13:22.005Z,72.84
2022-12-26T21:18:23.678Z,72.43
2022-12-26T21:23:25.348Z,72.24
2022-12-26T21:28:30.197Z,72.00
2022-12-26T21:33:32.022Z,71.81
2022-12-26T21:38:33.747Z,73.55
2022-12-26T21:43:35.837Z,74.30
2022-12-26T21:48:39.442Z,74.48
2022-12-26T21:53:41.575Z,74.25
2022-12-26T21:59:02.830Z,73.66
2022-12-26T22:04:19.679Z,72.59
2022-12-26T22:09:21.796Z,72.09
2022-12-26T22:14:23.522Z,73.70
2022-12-26T22:19:26.172Z,74.27
2022-12-26T22:24:27.843Z,73.90
2022-12-26T22:29:29.471Z,75.43
2022-12-26T22:34:31.073Z,75.77
2022-12-26T22:39:32.688Z,73.86
2022-12-26T22:44:34.320Z,74.25
2022-12-26T22:49:36.060Z,74.67
2022-12-26T22:54:37.723Z,75.80
2022-12-26T23:00:07.805Z,76.75
2022-12-26T23:05:01.520Z,77.86
2022-12-26T23:10:05.685Z,77.98
2022-12-26T23:15:08.319Z,78.03
2022-12-26T23:20:31.174Z,78.11
2022-12-26T23:25:32.944Z,77.51
2022-12-26T23:30:34.850Z,77.16
2022-12-26T23:35:36.588Z,77.52
2022-12-26T23:40:38.273Z,77.96
2022-12-26T23:45:44.149Z,77.67
2022-12-26T23:50:45.915Z,76.76
2022-12-26T23:55:47.830Z,76.37
